Terminal Aerodrome Forecast
Issued by NWS Sioux Falls, SD

Home | Current Version | Previous Version | Text Only | Print | Product List | Glossary On
Versions: 1 2 3 4 5 6 7 8 9 10 11 12 13 14
232
FTUS43 KFSD 220522
TAFFSD
TAF
KFSD 220522Z 2206/2306 15008KT P6SM FEW250
     FM220900 14009KT P6SM FEW200 WS015/17038KT
     FM221200 16015G22KT P6SM SCT150
     FM221500 16019G29KT P6SM BKN090
     FM230400 16015G23KT P6SM BKN035=

USA.gov is the U.S. government's official web portal to all federal, state and local government web resources and services.